createdAt,value
2023-12-16T00:01:12.823Z,9.30
2023-12-16T00:03:39.872Z,9.30
2023-12-16T00:06:07.837Z,9.30
2023-12-16T00:08:34.512Z,9.30
2023-12-16T00:11:01.187Z,9.30
2023-12-16T00:13:28.329Z,9.30
2023-12-16T00:15:55.051Z,9.30
2023-12-16T00:18:21.965Z,9.30
2023-12-16T00:20:49.253Z,9.30
2023-12-16T00:23:15.889Z,9.30
2023-12-16T00:25:42.542Z,9.30
2023-12-16T00:28:09.728Z,9.30
2023-12-16T00:30:36.470Z,9.30
2023-12-16T00:33:03.254Z,9.30
2023-12-16T00:35:29.912Z,9.30
2023-12-16T00:37:56.543Z,9.20
2023-12-16T00:40:23.333Z,9.20
2023-12-16T00:42:50.370Z,9.20
2023-12-16T00:45:20.214Z,9.20
2023-12-16T00:47:48.484Z,9.20
2023-12-16T00:50:15.230Z,9.20
2023-12-16T00:52:41.864Z,9.20
2023-12-16T00:55:09.006Z,9.30
2023-12-16T00:57:36.206Z,9.30
2023-12-16T01:00:03.122Z,9.30
2023-12-16T01:02:29.763Z,9.30
2023-12-16T01:04:56.929Z,9.40
2023-12-16T01:07:23.682Z,9.40
2023-12-16T01:09:51.877Z,9.40
2023-12-16T01:12:18.786Z,9.40
2023-12-16T01:14:45.460Z,9.40
2023-12-16T01:17:12.157Z,9.40
2023-12-16T01:19:38.816Z,9.40
2023-12-16T01:22:05.510Z,9.40
2023-12-16T01:24:37.812Z,9.40
2023-12-16T01:27:06.184Z,9.40
2023-12-16T01:29:32.853Z,9.40
2023-12-16T01:31:59.508Z,9.40
2023-12-16T01:34:26.219Z,9.40
2023-12-16T01:36:52.927Z,9.40
2023-12-16T01:39:19.578Z,9.40
2023-12-16T01:41:46.456Z,9.40
2023-12-16T01:44:13.085Z,9.40
2023-12-16T01:46:40.125Z,9.40
2023-12-16T01:49:06.922Z,9.40
2023-12-16T01:51:33.658Z,9.30
2023-12-16T01:54:00.325Z,9.30
2023-12-16T01:56:29.685Z,9.30
2023-12-16T01:58:56.361Z,9.30
2023-12-16T02:01:23.245Z,9.30
2023-12-16T02:03:50.489Z,9.40
2023-12-16T02:06:17.253Z,9.30
2023-12-16T02:08:43.967Z,9.30
2023-12-16T02:11:11.504Z,9.30
2023-12-16T02:13:38.464Z,9.30
2023-12-16T02:16:05.671Z,9.30
2023-12-16T02:18:34.255Z,9.30
2023-12-16T02:21:02.466Z,9.30
2023-12-16T02:23:29.133Z,9.30
2023-12-16T02:25:55.883Z,9.30
2023-12-16T02:28:22.652Z,9.30
2023-12-16T02:30:49.494Z,9.30
2023-12-16T02:33:18.607Z,9.30
2023-12-16T02:35:45.411Z,9.30
2023-12-16T02:38:12.090Z,9.30
2023-12-16T02:40:43.308Z,9.40
2023-12-16T02:43:10.420Z,9.40
2023-12-16T02:45:37.148Z,9.40
2023-12-16T02:48:04.093Z,9.40
2023-12-16T02:50:30.943Z,9.40
2023-12-16T02:52:57.587Z,9.50
2023-12-16T02:55:24.551Z,9.50
2023-12-16T02:57:51.334Z,9.50
2023-12-16T03:00:18.031Z,9.50
2023-12-16T03:02:44.705Z,9.40
2023-12-16T03:05:11.399Z,9.40
2023-12-16T03:07:39.459Z,9.40
2023-12-16T03:10:06.689Z,9.40
2023-12-16T03:12:33.411Z,9.40
2023-12-16T03:15:00.088Z,9.40
2023-12-16T03:17:26.839Z,9.40
2023-12-16T03:19:53.566Z,9.40
2023-12-16T03:22:20.265Z,9.40
2023-12-16T03:24:47.409Z,9.30
2023-12-16T03:27:14.148Z,9.30
2023-12-16T03:29:40.784Z,9.30
2023-12-16T03:32:07.430Z,9.30
2023-12-16T03:34:34.180Z,9.30
2023-12-16T03:37:00.886Z,9.30
2023-12-16T03:39:27.604Z,9.30
2023-12-16T03:41:54.505Z,9.30
2023-12-16T03:44:21.200Z,9.30
2023-12-16T03:46:47.888Z,9.30
2023-12-16T03:49:15.109Z,9.30
2023-12-16T03:51:41.865Z,9.40
2023-12-16T03:54:10.538Z,9.40
2023-12-16T03:56:37.260Z,9.40
2023-12-16T03:59:04.123Z,9.40
2023-12-16T04:01:30.946Z,9.40
2023-12-16T04:03:57.742Z,9.40
2023-12-16T04:06:24.450Z,9.40
2023-12-16T04:08:51.109Z,9.40
2023-12-16T04:11:17.883Z,9.40
2023-12-16T04:13:44.619Z,9.40
2023-12-16T04:16:11.382Z,9.40
2023-12-16T04:18:38.337Z,9.40
2023-12-16T04:21:05.796Z,9.40
2023-12-16T04:23:32.529Z,9.50
2023-12-16T04:25:59.481Z,9.50
2023-12-16T04:28:26.388Z,9.50
2023-12-16T04:30:53.288Z,9.50
2023-12-16T04:33:20.225Z,9.50
2023-12-16T04:35:47.008Z,9.50
2023-12-16T04:38:13.679Z,9.60
2023-12-16T04:40:40.650Z,9.50
2023-12-16T04:43:10.016Z,9.60
2023-12-16T04:45:36.852Z,9.60
2023-12-16T04:48:04.062Z,9.60
2023-12-16T04:50:30.915Z,9.60
2023-12-16T04:52:57.986Z,9.60
2023-12-16T04:55:27.475Z,9.60
2023-12-16T04:57:54.293Z,9.60
2023-12-16T05:00:21.043Z,9.60
2023-12-16T05:02:47.752Z,9.60
2023-12-16T05:05:14.653Z,9.60
2023-12-16T05:07:41.603Z,9.70
2023-12-16T05:10:11.683Z,9.60
2023-12-16T05:12:40.666Z,9.70
2023-12-16T05:15:07.877Z,9.60
2023-12-16T05:17:35.060Z,9.60
2023-12-16T05:20:02.078Z,9.60
2023-12-16T05:22:34.461Z,9.60
2023-12-16T05:25:05.057Z,9.60
2023-12-16T05:27:32.383Z,9.60
2023-12-16T05:29:59.263Z,9.60
2023-12-16T05:32:27.318Z,9.70
2023-12-16T05:34:54.838Z,9.60
2023-12-16T05:37:21.664Z,9.70
2023-12-16T05:39:48.721Z,9.70
2023-12-16T05:42:15.445Z,9.70
2023-12-16T05:44:42.113Z,9.70
2023-12-16T05:47:09.287Z,9.70
2023-12-16T05:49:36.721Z,9.70
2023-12-16T05:52:04.111Z,9.60
2023-12-16T05:54:30.905Z,9.70
2023-12-16T05:56:57.606Z,9.70
2023-12-16T05:59:25.392Z,9.70
2023-12-16T06:01:52.408Z,9.70
2023-12-16T06:04:19.230Z,9.70
2023-12-16T06:06:45.950Z,9.70
2023-12-16T06:09:13.046Z,9.70
2023-12-16T06:11:40.068Z,9.70
2023-12-16T06:14:06.759Z,9.70
2023-12-16T06:16:33.829Z,9.70
2023-12-16T06:19:00.723Z,9.70
2023-12-16T06:21:27.862Z,9.70
2023-12-16T06:23:54.552Z,9.60
2023-12-16T06:26:21.286Z,9.60
2023-12-16T06:28:48.406Z,9.60
2023-12-16T06:31:19.346Z,9.60
2023-12-16T06:33:46.260Z,9.60
2023-12-16T06:36:13.021Z,9.60
2023-12-16T06:38:40.124Z,9.60
2023-12-16T06:41:06.957Z,9.60
2023-12-16T06:43:33.642Z,9.60
2023-12-16T06:46:01.317Z,9.60
2023-12-16T06:48:28.353Z,9.60
2023-12-16T06:50:58.670Z,9.60
2023-12-16T06:53:25.400Z,9.60
2023-12-16T06:55:54.265Z,9.60
2023-12-16T06:58:21.779Z,9.60
2023-12-16T07:00:48.687Z,9.60
2023-12-16T07:03:15.417Z,9.60
2023-12-16T07:05:42.163Z,9.60
2023-12-16T07:08:08.880Z,9.60
2023-12-16T07:10:35.556Z,9.60
2023-12-16T07:13:02.226Z,9.60
2023-12-16T07:15:28.872Z,9.60
2023-12-16T07:17:55.687Z,9.60
2023-12-16T07:20:22.373Z,9.60
2023-12-16T07:22:49.031Z,9.60
2023-12-16T07:25:15.773Z,9.60
2023-12-16T07:27:42.629Z,9.60
2023-12-16T07:30:09.908Z,9.60
2023-12-16T07:32:36.866Z,9.70
2023-12-16T07:35:04.414Z,9.60
2023-12-16T07:37:31.225Z,9.70
2023-12-16T07:39:57.944Z,9.70
2023-12-16T07:42:24.895Z,9.70
2023-12-16T07:44:51.548Z,9.70
2023-12-16T07:47:18.365Z,9.70
2023-12-16T07:49:45.125Z,9.70
2023-12-16T07:52:11.899Z,9.80
2023-12-16T07:54:40.170Z,9.80
2023-12-16T07:57:06.830Z,9.70
2023-12-16T07:59:33.495Z,9.80
2023-12-16T08:02:05.025Z,9.80
2023-12-16T08:04:31.791Z,9.80
2023-12-16T08:06:58.485Z,9.80
2023-12-16T08:09:25.219Z,9.80
2023-12-16T08:11:55.951Z,9.80
2023-12-16T08:14:22.831Z,9.80
2023-12-16T08:16:49.496Z,9.80
2023-12-16T08:19:16.219Z,9.80
2023-12-16T08:21:42.958Z,9.80
2023-12-16T08:24:09.608Z,9.80
2023-12-16T08:26:36.268Z,9.80
2023-12-16T08:29:02.911Z,9.90
2023-12-16T08:31:29.791Z,9.90
2023-12-16T08:33:56.567Z,9.90
2023-12-16T08:36:23.303Z,9.90
2023-12-16T08:38:50.131Z,9.90
2023-12-16T08:41:16.794Z,9.90
2023-12-16T08:43:44.118Z,9.90
2023-12-16T08:46:10.808Z,9.90
2023-12-16T08:48:38.772Z,9.90
2023-12-16T08:51:05.729Z,9.90
2023-12-16T08:53:32.362Z,9.90
2023-12-16T08:55:59.019Z,9.90
2023-12-16T08:58:25.672Z,9.90
2023-12-16T09:00:53.856Z,9.90
2023-12-16T09:03:21.320Z,9.90
2023-12-16T09:05:48.415Z,10.00
2023-12-16T09:08:15.126Z,10.00
2023-12-16T09:10:41.805Z,10.00
2023-12-16T09:13:08.660Z,10.10
2023-12-16T09:15:35.394Z,10.10
2023-12-16T09:18:02.232Z,10.10
2023-12-16T09:20:28.949Z,10.20
2023-12-16T09:22:55.625Z,10.20
2023-12-16T09:25:22.348Z,10.20
2023-12-16T09:27:49.035Z,10.20
2023-12-16T09:30:15.943Z,10.30
2023-12-16T09:32:46.556Z,10.30
2023-12-16T09:35:13.431Z,10.30
2023-12-16T09:37:40.369Z,10.30
2023-12-16T09:40:07.914Z,10.30
2023-12-16T09:42:37.721Z,10.30
2023-12-16T09:45:04.921Z,10.30
2023-12-16T09:47:31.958Z,10.30
2023-12-16T09:50:01.789Z,10.30
2023-12-16T09:52:28.891Z,10.30
2023-12-16T09:54:56.043Z,10.40
2023-12-16T09:57:23.251Z,10.40
2023-12-16T09:59:50.940Z,10.40
2023-12-16T10:02:31.250Z,10.40
2023-12-16T10:04:59.577Z,10.40
2023-12-16T10:07:27.021Z,10.50
2023-12-16T10:09:54.027Z,10.50
2023-12-16T10:12:20.713Z,10.60
2023-12-16T10:14:51.344Z,10.70
2023-12-16T10:17:18.603Z,10.80
2023-12-16T10:19:45.833Z,10.80
2023-12-16T10:22:16.299Z,10.80
2023-12-16T10:24:43.177Z,10.80
2023-12-16T10:27:12.683Z,10.90
2023-12-16T10:29:50.035Z,10.90
2023-12-16T10:32:20.990Z,11.00
2023-12-16T10:34:47.743Z,11.00
2023-12-16T10:37:14.503Z,11.00
2023-12-16T10:39:41.197Z,11.00
2023-12-16T10:42:07.832Z,11.00
2023-12-16T10:44:34.487Z,11.10
2023-12-16T10:47:01.205Z,11.20
2023-12-16T10:49:32.336Z,11.10
2023-12-16T10:52:11.481Z,11.10
2023-12-16T10:54:41.114Z,11.20
2023-12-16T10:57:13.762Z,11.20
2023-12-16T10:59:44.887Z,11.20
2023-12-16T11:02:24.362Z,11.30
2023-12-16T11:04:56.476Z,11.30
2023-12-16T11:07:23.954Z,11.30
2023-12-16T11:09:50.652Z,11.30
2023-12-16T11:12:17.338Z,11.40
2023-12-16T11:14:43.994Z,11.40
2023-12-16T11:17:29.609Z,11.50
2023-12-16T11:20:09.427Z,11.60
2023-12-16T11:22:47.350Z,11.60
2023-12-16T11:25:20.983Z,11.70
2023-12-16T11:27:48.915Z,11.80
2023-12-16T11:30:16.137Z,11.90
2023-12-16T11:32:45.848Z,12.00
2023-12-16T11:35:12.556Z,12.00
2023-12-16T11:37:39.375Z,12.00
2023-12-16T11:40:08.984Z,12.00
2023-12-16T11:42:44.897Z,12.10
2023-12-16T11:45:11.555Z,12.20
2023-12-16T11:47:38.305Z,12.30
2023-12-16T11:50:05.314Z,12.40
2023-12-16T11:52:32.042Z,12.40
2023-12-16T11:54:59.074Z,12.50
2023-12-16T11:57:27.588Z,12.50
2023-12-16T11:59:55.079Z,12.50
2023-12-16T12:02:21.931Z,12.50
2023-12-16T12:04:49.071Z,12.50
2023-12-16T12:07:15.940Z,12.40
2023-12-16T12:09:43.365Z,12.30
2023-12-16T12:12:10.453Z,12.20
2023-12-16T12:14:42.792Z,12.20
2023-12-16T12:17:09.472Z,12.10
2023-12-16T12:19:36.229Z,12.00
2023-12-16T12:22:03.520Z,12.00
2023-12-16T12:24:30.263Z,12.00
2023-12-16T12:26:57.386Z,12.00
2023-12-16T12:29:24.754Z,11.90
2023-12-16T12:31:52.022Z,11.80
2023-12-16T12:34:22.832Z,11.80
2023-12-16T12:36:55.302Z,11.70
2023-12-16T12:39:22.406Z,11.60
2023-12-16T12:42:02.919Z,11.60
2023-12-16T12:44:31.573Z,11.50
2023-12-16T12:46:58.345Z,11.40
2023-12-16T12:49:32.591Z,11.40
2023-12-16T12:51:59.306Z,11.40
2023-12-16T12:54:26.754Z,11.40
2023-12-16T12:56:53.481Z,11.40
2023-12-16T12:59:58.138Z,11.40
2023-12-16T13:02:06.829Z,11.40
2023-12-16T13:04:33.487Z,11.50
2023-12-16T13:07:00.136Z,11.50
2023-12-16T13:09:26.820Z,11.50
2023-12-16T13:11:53.504Z,11.60
2023-12-16T13:14:26.853Z,11.70
2023-12-16T13:16:56.227Z,11.70
2023-12-16T13:19:22.944Z,11.80
2023-12-16T13:21:49.831Z,11.80
2023-12-16T13:24:16.625Z,11.90
2023-12-16T13:26:43.441Z,11.90
2023-12-16T13:29:10.094Z,11.90
2023-12-16T13:31:36.812Z,11.90
2023-12-16T13:34:03.632Z,11.90
2023-12-16T13:36:34.665Z,11.90
2023-12-16T13:39:16.624Z,11.90
2023-12-16T13:41:43.416Z,11.90
2023-12-16T13:44:10.066Z,11.90
2023-12-16T13:46:36.829Z,11.90
2023-12-16T13:49:06.940Z,11.90
2023-12-16T13:51:33.908Z,11.80
2023-12-16T13:54:00.618Z,11.80
2023-12-16T13:56:27.735Z,11.70
2023-12-16T13:58:54.492Z,11.70
2023-12-16T14:01:22.040Z,11.70
2023-12-16T14:03:48.986Z,11.70
2023-12-16T14:06:15.773Z,11.70
2023-12-16T14:08:42.581Z,11.70
2023-12-16T14:11:09.293Z,11.70
2023-12-16T14:13:37.489Z,11.60
2023-12-16T14:16:04.797Z,11.60
2023-12-16T14:18:31.606Z,11.60
2023-12-16T14:20:58.485Z,11.60
2023-12-16T14:23:25.167Z,11.60
2023-12-16T14:25:51.810Z,11.60
2023-12-16T14:28:18.462Z,11.60
2023-12-16T14:30:45.191Z,11.60
2023-12-16T14:33:12.250Z,11.60
2023-12-16T14:35:39.238Z,11.60
2023-12-16T14:38:06.058Z,11.60
2023-12-16T14:40:32.801Z,11.40
2023-12-16T14:42:59.474Z,11.30
2023-12-16T14:45:26.218Z,11.30
2023-12-16T14:47:53.000Z,11.20
2023-12-16T14:50:19.739Z,11.10
2023-12-16T14:52:46.445Z,11.10
2023-12-16T14:55:13.156Z,11.00
2023-12-16T14:57:40.168Z,10.90
2023-12-16T15:00:07.620Z,10.90
2023-12-16T15:02:34.359Z,10.80
2023-12-16T15:05:02.706Z,10.70
2023-12-16T15:07:29.517Z,10.70
2023-12-16T15:09:56.304Z,10.70
2023-12-16T15:12:23.229Z,10.70
2023-12-16T15:14:50.088Z,10.60
2023-12-16T15:17:16.878Z,10.60
2023-12-16T15:19:43.739Z,10.50
2023-12-16T15:22:10.695Z,10.50
2023-12-16T15:24:37.900Z,10.40
2023-12-16T15:27:04.967Z,10.40
2023-12-16T15:29:34.661Z,10.40
2023-12-16T15:32:01.786Z,10.30
2023-12-16T15:34:30.175Z,10.30
2023-12-16T15:37:04.231Z,10.30
2023-12-16T15:39:35.695Z,10.20
2023-12-16T15:42:02.482Z,10.20
2023-12-16T15:44:29.227Z,10.10
2023-12-16T15:46:56.000Z,10.10
2023-12-16T15:49:24.823Z,10.00
2023-12-16T15:51:51.679Z,10.00
2023-12-16T15:54:18.409Z,10.00
2023-12-16T15:56:46.898Z,9.90
2023-12-16T15:59:13.896Z,9.90
2023-12-16T16:01:40.635Z,9.80
2023-12-16T16:04:07.590Z,9.80
2023-12-16T16:06:34.649Z,9.80
2023-12-16T16:09:01.673Z,9.70
2023-12-16T16:11:28.759Z,9.70
2023-12-16T16:13:55.448Z,9.60
2023-12-16T16:16:22.244Z,9.60
2023-12-16T16:18:49.728Z,9.50
2023-12-16T16:21:17.015Z,9.50
2023-12-16T16:23:43.986Z,9.40
2023-12-16T16:26:11.092Z,9.40
2023-12-16T16:28:37.785Z,9.30
2023-12-16T16:31:07.326Z,9.30
2023-12-16T16:33:34.202Z,9.20
2023-12-16T16:36:02.322Z,9.20
2023-12-16T16:38:30.157Z,9.10
2023-12-16T16:40:56.810Z,9.00
2023-12-16T16:43:23.516Z,9.00
2023-12-16T16:45:50.167Z,8.90
2023-12-16T16:48:16.946Z,8.90
2023-12-16T16:50:49.172Z,8.80
2023-12-16T16:53:18.810Z,8.80
2023-12-16T16:55:45.529Z,8.80
2023-12-16T16:58:12.193Z,8.70
2023-12-16T17:00:40.029Z,8.70
2023-12-16T17:03:06.890Z,8.70
2023-12-16T17:05:33.842Z,8.60
2023-12-16T17:08:00.890Z,8.60
2023-12-16T17:10:27.597Z,8.60
2023-12-16T17:12:54.319Z,8.60
2023-12-16T17:15:21.298Z,8.60
2023-12-16T17:17:48.122Z,8.70
2023-12-16T17:20:14.829Z,8.60
2023-12-16T17:22:41.525Z,8.60
2023-12-16T17:25:09.267Z,8.60
2023-12-16T17:27:35.944Z,8.70
2023-12-16T17:30:03.011Z,8.70
2023-12-16T17:32:29.871Z,8.70
2023-12-16T17:34:57.808Z,8.70
2023-12-16T17:37:24.510Z,8.70
2023-12-16T17:39:51.152Z,8.80
2023-12-16T17:42:17.815Z,8.80
2023-12-16T17:44:44.531Z,8.80
2023-12-16T17:47:11.578Z,8.80
2023-12-16T17:49:38.228Z,8.90
2023-12-16T17:52:05.038Z,8.90
2023-12-16T17:54:31.697Z,8.90
2023-12-16T17:56:58.397Z,9.00
2023-12-16T17:59:25.092Z,9.00
2023-12-16T18:01:51.819Z,9.00
2023-12-16T18:04:18.516Z,9.00
2023-12-16T18:06:51.177Z,9.00
2023-12-16T18:09:18.768Z,9.00
2023-12-16T18:11:45.471Z,9.00
2023-12-16T18:14:12.278Z,9.00
2023-12-16T18:16:39.011Z,9.00
2023-12-16T18:19:06.193Z,9.00
2023-12-16T18:21:33.421Z,9.10
2023-12-16T18:24:01.420Z,9.10
2023-12-16T18:26:28.431Z,9.10
2023-12-16T18:28:56.552Z,9.10
2023-12-16T18:31:23.413Z,9.10
2023-12-16T18:33:50.349Z,9.20
2023-12-16T18:36:17.156Z,9.20
2023-12-16T18:38:45.774Z,9.20
2023-12-16T18:41:12.899Z,9.20
2023-12-16T18:43:40.405Z,9.20
2023-12-16T18:46:07.425Z,9.20
2023-12-16T18:48:34.486Z,9.20
2023-12-16T18:51:01.259Z,9.20
2023-12-16T18:53:28.014Z,9.30
2023-12-16T18:55:54.645Z,9.30
2023-12-16T18:58:22.005Z,9.30
2023-12-16T19:00:49.909Z,9.30
2023-12-16T19:03:17.837Z,9.30
2023-12-16T19:05:44.610Z,9.30
2023-12-16T19:08:11.997Z,9.30
2023-12-16T19:10:38.644Z,9.30
2023-12-16T19:13:05.319Z,9.30
2023-12-16T19:15:32.023Z,9.30
2023-12-16T19:17:59.153Z,9.40
2023-12-16T19:20:25.951Z,9.40
2023-12-16T19:22:53.935Z,9.40
2023-12-16T19:25:20.671Z,9.40
2023-12-16T19:27:47.392Z,9.50
2023-12-16T19:30:14.249Z,9.50
2023-12-16T19:32:40.992Z,9.50
2023-12-16T19:35:08.679Z,9.50
2023-12-16T19:37:35.357Z,9.50
2023-12-16T19:40:02.091Z,9.50
2023-12-16T19:42:28.749Z,9.50
2023-12-16T19:44:55.406Z,9.40
2023-12-16T19:47:25.889Z,9.40
2023-12-16T19:49:55.787Z,9.40
2023-12-16T19:52:22.486Z,9.40
2023-12-16T19:54:49.131Z,9.40
2023-12-16T19:57:16.005Z,9.40
2023-12-16T19:59:46.269Z,9.40
2023-12-16T20:02:13.307Z,9.30
2023-12-16T20:04:40.063Z,9.30
2023-12-16T20:07:06.744Z,9.30
2023-12-16T20:09:33.419Z,9.30
2023-12-16T20:12:00.096Z,9.30
2023-12-16T20:14:28.523Z,9.20
2023-12-16T20:16:55.334Z,9.20
2023-12-16T20:19:22.186Z,9.20
2023-12-16T20:21:50.253Z,9.20
2023-12-16T20:24:17.148Z,9.20
2023-12-16T20:26:43.881Z,9.10
2023-12-16T20:29:10.656Z,9.10
2023-12-16T20:31:37.328Z,9.10
2023-12-16T20:34:04.255Z,9.10
2023-12-16T20:36:33.044Z,9.10
2023-12-16T20:39:18.621Z,9.00
2023-12-16T20:41:45.336Z,9.00
2023-12-16T20:44:12.028Z,8.90
2023-12-16T20:46:38.819Z,8.90
2023-12-16T20:49:05.664Z,8.90
2023-12-16T20:51:32.574Z,8.90
2023-12-16T20:53:59.290Z,8.90
2023-12-16T20:56:26.023Z,8.90
2023-12-16T20:58:52.889Z,8.90
2023-12-16T21:01:19.970Z,8.90
2023-12-16T21:03:46.724Z,8.90
2023-12-16T21:06:13.496Z,8.90
2023-12-16T21:08:40.256Z,8.90
2023-12-16T21:11:07.043Z,9.00
2023-12-16T21:13:33.707Z,9.00
2023-12-16T21:16:00.355Z,9.00
2023-12-16T21:18:27.321Z,9.00
2023-12-16T21:20:54.559Z,9.00
2023-12-16T21:23:21.227Z,9.00
2023-12-16T21:25:47.894Z,9.00
2023-12-16T21:28:15.091Z,8.90
2023-12-16T21:30:42.370Z,9.00
2023-12-16T21:33:09.266Z,9.00
2023-12-16T21:35:36.120Z,9.00
2023-12-16T21:38:03.165Z,8.90
2023-12-16T21:40:30.156Z,9.00
2023-12-16T21:42:57.930Z,8.90
2023-12-16T21:45:24.650Z,8.90
2023-12-16T21:47:51.623Z,8.90
2023-12-16T21:50:18.434Z,8.90
2023-12-16T21:52:45.188Z,8.90
2023-12-16T21:55:11.898Z,8.90
2023-12-16T21:57:38.762Z,8.80
2023-12-16T22:00:06.225Z,8.80
2023-12-16T22:02:32.926Z,8.80
2023-12-16T22:04:59.628Z,8.70
2023-12-16T22:07:26.370Z,8.70
2023-12-16T22:09:53.247Z,8.70
2023-12-16T22:12:20.197Z,8.60
2023-12-16T22:14:47.190Z,8.60
2023-12-16T22:17:13.851Z,8.50
2023-12-16T22:19:41.465Z,8.50
2023-12-16T22:22:08.199Z,8.60
2023-12-16T22:24:34.880Z,8.60
2023-12-16T22:27:01.604Z,8.50
2023-12-16T22:29:28.294Z,8.50
2023-12-16T22:31:55.067Z,8.50
2023-12-16T22:34:21.947Z,8.50
2023-12-16T22:36:48.693Z,8.50
2023-12-16T22:39:15.463Z,8.50
2023-12-16T22:41:42.186Z,8.60
2023-12-16T22:44:08.860Z,8.60
2023-12-16T22:46:35.560Z,8.60
2023-12-16T22:49:02.503Z,8.60
2023-12-16T22:51:29.505Z,8.70
2023-12-16T22:53:56.402Z,8.70
2023-12-16T22:56:23.097Z,8.70
2023-12-16T22:58:49.771Z,8.70
2023-12-16T23:01:16.489Z,8.80
2023-12-16T23:03:43.365Z,8.70
2023-12-16T23:06:10.169Z,8.70
2023-12-16T23:08:38.105Z,8.70
2023-12-16T23:11:05.392Z,8.70
2023-12-16T23:13:32.071Z,8.60
2023-12-16T23:15:58.741Z,8.60
2023-12-16T23:18:25.515Z,8.60
2023-12-16T23:20:52.311Z,8.50
2023-12-16T23:23:19.109Z,8.50
2023-12-16T23:25:46.032Z,8.40
2023-12-16T23:28:12.776Z,8.40
2023-12-16T23:30:39.608Z,8.40
2023-12-16T23:33:06.470Z,8.40
2023-12-16T23:35:33.304Z,8.40
2023-12-16T23:37:59.985Z,8.40
2023-12-16T23:40:26.658Z,8.40
2023-12-16T23:42:53.308Z,8.40
2023-12-16T23:45:20.166Z,8.40
2023-12-16T23:47:47.161Z,8.40
2023-12-16T23:50:14.103Z,8.30
2023-12-16T23:52:40.790Z,8.30
2023-12-16T23:55:08.063Z,8.20
2023-12-16T23:57:34.911Z,8.30
